createdAt,value
2019-04-05T04:00:53.617Z,11.20
2019-04-05T04:01:53.464Z,23.50
2019-04-05T04:03:46.131Z,24.30
2019-04-05T04:04:46.020Z,23.00
2019-04-05T04:06:38.696Z,24.80
2019-04-05T04:07:38.594Z,24.10
2019-04-05T04:09:31.241Z,24.10
2019-04-05T04:10:31.118Z,24.60
2019-04-05T04:12:23.822Z,24.30
2019-04-05T04:13:23.695Z,24.60
2019-04-05T04:15:16.388Z,25.20
2019-04-05T04:16:16.276Z,24.40
2019-04-05T04:18:08.974Z,25.50
2019-04-05T04:19:08.829Z,24.30
2019-04-05T04:21:01.579Z,25.00
2019-04-05T04:22:01.453Z,24.90
2019-04-05T04:23:54.583Z,24.10
2019-04-05T04:24:54.457Z,25.30
2019-04-05T04:26:47.117Z,25.10
2019-04-05T04:27:47.048Z,25.10
2019-04-05T04:29:39.686Z,24.30
2019-04-05T04:30:39.545Z,26.00
2019-04-05T04:32:32.240Z,25.20
2019-04-05T04:33:32.120Z,25.50
2019-04-05T04:35:24.803Z,25.30
2019-04-05T04:36:24.667Z,25.80
2019-04-05T04:38:17.327Z,25.40
2019-04-05T04:39:17.222Z,25.60
2019-04-05T04:41:09.925Z,25.00
2019-04-05T04:42:09.782Z,25.10
2019-04-05T04:44:02.459Z,26.40
2019-04-05T04:45:11.908Z,25.40
2019-04-05T04:46:55.039Z,25.20
2019-04-05T04:47:54.894Z,25.50
2019-04-05T04:49:47.564Z,25.60
2019-04-05T04:50:47.450Z,25.50
2019-04-05T04:52:40.144Z,25.80
2019-04-05T04:53:40.015Z,25.80
2019-04-05T04:55:32.724Z,25.90
2019-04-05T04:56:32.558Z,25.70
2019-04-05T04:58:25.233Z,24.60
2019-04-05T04:59:25.105Z,25.30
2019-04-05T05:01:17.761Z,25.30
2019-04-05T05:02:17.655Z,24.70
2019-04-05T05:04:10.339Z,26.40
2019-04-05T05:05:10.203Z,24.70
2019-04-05T05:07:02.920Z,25.60
2019-04-05T05:08:02.757Z,25.70
2019-04-05T05:09:55.424Z,25.30
2019-04-05T05:10:55.329Z,25.60
2019-04-05T05:12:47.968Z,25.20
2019-04-05T05:13:47.854Z,25.30
2019-04-05T05:15:40.531Z,25.10
2019-04-05T05:16:40.403Z,24.50
2019-04-05T05:18:33.084Z,24.70
2019-04-05T05:19:32.979Z,25.60
2019-04-05T05:21:25.701Z,25.50
2019-04-05T05:22:25.517Z,25.20
2019-04-05T05:24:18.205Z,28.60
2019-04-05T05:25:18.084Z,28.10
2019-04-05T05:27:10.751Z,27.30
2019-04-05T05:28:10.617Z,29.70
2019-04-05T05:30:03.315Z,27.00
2019-04-05T05:31:03.184Z,27.00
2019-04-05T05:32:55.860Z,28.80
2019-04-05T05:33:55.730Z,27.40
2019-04-05T05:35:48.412Z,26.40
2019-04-05T05:36:48.283Z,27.90
2019-04-05T05:38:40.953Z,25.50
2019-04-05T05:39:40.839Z,26.30
2019-04-05T05:41:33.530Z,25.60
2019-04-05T05:42:33.391Z,24.80
2019-04-05T05:44:26.064Z,25.60
2019-04-05T05:45:25.950Z,26.10
2019-04-05T05:47:18.638Z,26.10
2019-04-05T05:48:18.511Z,25.10
2019-04-05T05:50:11.169Z,27.10
2019-04-05T05:51:11.055Z,26.40
2019-04-05T05:53:03.744Z,26.20
2019-04-05T05:54:03.608Z,25.70
2019-04-05T05:55:56.280Z,25.10
2019-04-05T05:56:56.168Z,24.50
2019-04-05T05:58:48.852Z,25.00
2019-04-05T05:59:48.717Z,27.80
2019-04-05T06:01:41.378Z,25.70
2019-04-05T06:02:41.270Z,25.00
2019-04-05T06:04:33.938Z,24.30
2019-04-05T06:05:33.815Z,23.60
2019-04-05T06:07:26.485Z,24.20
2019-04-05T06:08:29.051Z,24.80
2019-04-05T06:10:19.070Z,24.90
2019-04-05T06:11:18.937Z,26.30
2019-04-05T06:13:11.614Z,25.00
2019-04-05T06:14:11.497Z,23.80
2019-04-05T06:16:04.193Z,23.70
2019-04-05T06:17:04.045Z,21.80
2019-04-05T06:18:56.708Z,21.50
2019-04-05T06:19:56.602Z,21.90
2019-04-05T06:21:49.290Z,22.10
2019-04-05T06:22:49.149Z,22.10
2019-04-05T06:24:41.821Z,21.40
2019-04-05T06:25:41.711Z,21.50
2019-04-05T06:27:35.510Z,20.80
2019-04-05T06:28:34.312Z,21.70
2019-04-05T06:30:28.777Z,19.90
2019-04-05T06:31:26.814Z,21.60
2019-04-05T06:33:30.921Z,20.80
2019-04-05T06:34:19.379Z,20.70
2019-04-05T06:36:12.031Z,20.10
2019-04-05T06:37:11.928Z,20.30
2019-04-05T06:39:04.608Z,19.90
2019-04-05T06:40:04.480Z,20.10
2019-04-05T06:41:57.157Z,20.40
2019-04-05T06:42:57.038Z,20.70
2019-04-05T06:44:49.721Z,20.70
2019-04-05T06:45:49.644Z,20.90
2019-04-05T06:47:42.288Z,20.70
2019-04-05T06:48:42.161Z,20.90
2019-04-05T06:50:34.844Z,20.50
2019-04-05T06:51:34.722Z,21.30
2019-04-05T06:53:27.393Z,21.40
2019-04-05T06:54:27.276Z,21.40
2019-04-05T06:56:19.967Z,20.90
2019-04-05T06:57:19.837Z,20.80
2019-04-05T06:59:12.507Z,21.00
2019-04-05T07:00:12.398Z,20.60
2019-04-05T07:02:05.069Z,20.60
2019-04-05T07:03:04.945Z,21.20
2019-04-05T07:04:57.638Z,20.60
2019-04-05T07:05:57.543Z,21.10
2019-04-05T07:07:50.181Z,20.40
2019-04-05T07:08:54.087Z,19.50
2019-04-05T07:10:45.069Z,19.50
2019-04-05T07:11:42.628Z,19.70
2019-04-05T07:13:35.286Z,19.70
2019-04-05T07:14:35.238Z,20.50
2019-04-05T07:16:27.858Z,19.40
2019-04-05T07:17:27.721Z,19.90
2019-04-05T07:19:20.387Z,19.10
2019-04-05T07:20:20.278Z,19.30
2019-04-05T07:22:12.966Z,18.70
2019-04-05T07:23:12.845Z,18.00
2019-04-05T07:25:05.504Z,19.50
2019-04-05T07:26:05.392Z,18.70
2019-04-05T07:27:58.081Z,19.10
2019-04-05T07:28:57.949Z,19.40
2019-04-05T07:30:50.624Z,19.00
2019-04-05T07:31:50.503Z,18.90
2019-04-05T07:33:43.196Z,18.50
2019-04-05T07:34:43.057Z,19.80
2019-04-05T07:36:35.779Z,19.40
2019-04-05T07:37:35.672Z,19.70
2019-04-05T07:39:28.362Z,19.20
2019-04-05T07:40:28.219Z,18.60
2019-04-05T07:42:20.890Z,18.00
2019-04-05T07:43:20.777Z,19.00
2019-04-05T07:45:13.547Z,17.90
2019-04-05T07:46:13.374Z,17.70
2019-04-05T07:48:06.006Z,17.90
2019-04-05T07:49:05.889Z,18.10
2019-04-05T07:50:58.584Z,18.80
2019-04-05T07:51:58.449Z,17.80
2019-04-05T07:53:51.123Z,18.40
2019-04-05T07:54:51.006Z,18.10
2019-04-05T07:56:46.152Z,17.20
2019-04-05T07:57:43.568Z,17.40
2019-04-05T07:59:36.250Z,17.10
2019-04-05T08:00:36.138Z,18.60
2019-04-05T08:02:28.827Z,16.20
2019-04-05T08:03:28.701Z,17.60
2019-04-05T08:05:21.367Z,16.90
2019-04-05T08:06:21.255Z,18.30
2019-04-05T08:08:13.945Z,16.80
2019-04-05T08:09:13.816Z,17.50
2019-04-05T08:11:06.487Z,17.40
2019-04-05T08:12:06.384Z,16.70
2019-04-05T08:13:59.080Z,16.70
2019-04-05T08:14:58.941Z,16.10
2019-04-05T08:16:51.610Z,17.80
2019-04-05T08:17:51.498Z,16.70
2019-04-05T08:19:44.176Z,16.80
2019-04-05T08:20:44.054Z,16.00
2019-04-05T08:22:36.720Z,16.20
2019-04-05T08:23:36.613Z,15.90
2019-04-05T08:25:29.306Z,14.50
2019-04-05T08:26:29.164Z,14.80
2019-04-05T08:28:21.832Z,15.10
2019-04-05T08:29:21.721Z,14.80
2019-04-05T08:31:14.782Z,14.60
2019-04-05T08:32:15.088Z,14.00
2019-04-05T08:34:06.946Z,14.10
2019-04-05T08:35:06.834Z,14.20
2019-04-05T08:36:59.527Z,12.90
2019-04-05T08:37:59.394Z,13.10
2019-04-05T08:39:52.069Z,13.30
2019-04-05T08:40:51.981Z,13.80
2019-04-05T08:42:44.660Z,14.30
2019-04-05T08:43:47.033Z,14.70
2019-04-05T08:45:37.193Z,12.90
2019-04-05T08:46:37.084Z,13.30
2019-04-05T08:48:29.789Z,13.40
2019-04-05T08:49:29.651Z,12.70
2019-04-05T08:51:22.324Z,13.30
2019-04-05T08:52:22.219Z,13.20
2019-04-05T08:54:14.915Z,13.60
2019-04-05T08:55:14.774Z,13.40
2019-04-05T08:57:07.451Z,13.30
2019-04-05T08:58:07.343Z,14.30
2019-04-05T09:00:00.097Z,13.80
2019-04-05T09:00:59.889Z,13.60
2019-04-05T09:02:52.672Z,13.70
2019-04-05T09:03:52.446Z,13.80
2019-04-05T09:05:45.110Z,13.80
2019-04-05T09:06:45.011Z,13.40
2019-04-05T09:08:37.691Z,13.50
2019-04-05T09:09:37.569Z,14.20
2019-04-05T09:11:30.298Z,12.80
2019-04-05T09:12:30.131Z,13.90
2019-04-05T09:14:22.829Z,13.10
2019-04-05T09:15:22.687Z,12.80
2019-04-05T09:17:15.364Z,12.50
2019-04-05T09:18:15.248Z,12.00
2019-04-05T09:20:07.950Z,12.10
2019-04-05T09:21:10.098Z,11.40
2019-04-05T09:23:00.497Z,11.70
2019-04-05T09:24:00.387Z,12.60
2019-04-05T09:25:53.077Z,12.80
2019-04-05T09:26:54.407Z,12.80
2019-04-05T09:28:45.638Z,12.10
2019-04-05T09:29:45.510Z,12.30
2019-04-05T09:31:38.209Z,11.70
2019-04-05T09:32:38.088Z,11.70
2019-04-05T09:34:30.765Z,12.30
2019-04-05T09:35:30.647Z,12.30
2019-04-05T09:37:23.313Z,12.50
2019-04-05T09:38:23.203Z,11.90
2019-04-05T09:40:15.891Z,12.50
2019-04-05T09:41:15.763Z,11.30
2019-04-05T09:43:08.433Z,11.80
2019-04-05T09:44:08.326Z,11.60
2019-04-05T09:46:01.006Z,11.70
2019-04-05T09:47:00.888Z,12.10
2019-04-05T09:48:53.553Z,11.80
2019-04-05T09:49:53.433Z,12.20
2019-04-05T09:51:46.141Z,11.90
2019-04-05T09:52:46.009Z,12.30
2019-04-05T09:54:38.684Z,11.70
2019-04-05T09:55:38.567Z,11.20
2019-04-05T09:57:31.250Z,11.30
2019-04-05T09:58:31.127Z,11.40
2019-04-05T10:00:23.809Z,11.90
2019-04-05T10:01:23.677Z,11.20
2019-04-05T10:03:16.397Z,12.00
2019-04-05T10:04:16.283Z,11.50
2019-04-05T10:06:08.975Z,11.60
2019-04-05T10:07:08.840Z,10.70
2019-04-05T10:09:01.501Z,10.80
2019-04-05T10:10:01.398Z,11.20
2019-04-05T10:11:54.084Z,10.60
2019-04-05T10:12:53.949Z,11.20
2019-04-05T10:14:46.627Z,11.00
2019-04-05T10:15:46.513Z,11.00
2019-04-05T10:17:39.216Z,9.90
2019-04-05T10:18:39.079Z,9.50
2019-04-05T10:20:31.749Z,9.20
2019-04-05T10:21:31.638Z,9.90
2019-04-05T10:23:24.346Z,9.00
2019-04-05T10:24:24.208Z,8.30
2019-04-05T10:26:16.886Z,9.10
2019-04-05T10:27:16.774Z,9.20
2019-04-05T10:29:09.457Z,9.40
2019-04-05T10:30:09.350Z,9.00
2019-04-05T10:32:01.996Z,8.80
2019-04-05T10:33:01.889Z,8.10
2019-04-05T10:34:54.567Z,8.40
2019-04-05T10:35:54.443Z,8.70
2019-04-05T10:37:47.107Z,8.30
2019-04-05T10:38:47.000Z,8.60
2019-04-05T10:40:39.690Z,8.30
2019-04-05T10:41:39.560Z,9.20
2019-04-05T10:43:32.245Z,9.30
2019-04-05T10:44:32.130Z,9.80
2019-04-05T10:46:24.811Z,8.70
2019-04-05T10:47:24.699Z,9.00
2019-04-05T10:49:17.350Z,9.30
2019-04-05T10:50:17.277Z,9.50
2019-04-05T10:52:09.933Z,8.90
2019-04-05T10:53:09.792Z,8.30
2019-04-05T10:55:02.464Z,9.00
2019-04-05T10:56:02.348Z,8.40
2019-04-05T10:57:55.034Z,8.60
2019-04-05T10:58:54.909Z,8.70
2019-04-05T11:00:47.605Z,9.80
2019-04-05T11:01:47.482Z,10.00
2019-04-05T11:03:40.166Z,9.70
2019-04-05T11:04:40.023Z,9.30
2019-04-05T11:06:32.705Z,8.90
2019-04-05T11:07:34.927Z,8.90
2019-04-05T11:09:25.292Z,8.80
2019-04-05T11:10:25.154Z,9.40
2019-04-05T11:12:17.823Z,8.10
2019-04-05T11:13:17.713Z,7.90
2019-04-05T11:15:10.398Z,7.60
2019-04-05T11:16:10.268Z,7.20
2019-04-05T11:18:04.560Z,7.90
2019-04-05T11:19:02.834Z,7.50
2019-04-05T11:20:55.517Z,7.50
2019-04-05T11:21:55.392Z,7.10
2019-04-05T11:23:48.059Z,6.90
2019-04-05T11:24:47.952Z,6.60
2019-04-05T11:26:40.653Z,6.10
2019-04-05T11:27:40.518Z,7.00
2019-04-05T11:29:33.177Z,6.30
2019-04-05T11:30:33.083Z,6.40
2019-04-05T11:32:25.778Z,6.40
2019-04-05T11:33:25.654Z,6.70
2019-04-05T11:35:18.318Z,6.80
2019-04-05T11:36:18.213Z,6.60
2019-04-05T11:38:11.023Z,6.90
2019-04-05T11:39:10.862Z,6.50
2019-04-05T11:41:03.579Z,6.60
2019-04-05T11:42:03.432Z,6.10
2019-04-05T11:43:56.104Z,6.40
2019-04-05T11:44:55.989Z,6.40
2019-04-05T11:46:49.372Z,7.20
2019-04-05T11:47:48.545Z,7.20
2019-04-05T11:49:41.205Z,7.80
2019-04-05T11:50:41.100Z,9.30
2019-04-05T11:52:33.786Z,8.40
2019-04-05T11:53:33.664Z,8.40
2019-04-05T11:55:26.326Z,7.80
2019-04-05T11:56:26.224Z,7.60
2019-04-05T11:58:18.918Z,7.90
2019-04-05T11:59:18.783Z,7.10
2019-04-05T12:01:11.485Z,8.30
2019-04-05T12:02:11.347Z,8.70
2019-04-05T12:04:04.041Z,7.40
2019-04-05T12:05:03.925Z,7.60
2019-04-05T12:06:56.573Z,8.10
2019-04-05T12:08:00.853Z,7.70
2019-04-05T12:09:49.185Z,7.30
2019-04-05T12:10:49.028Z,7.50
2019-04-05T12:12:41.755Z,7.90
2019-04-05T12:13:41.596Z,7.90
2019-04-05T12:15:35.693Z,7.90
2019-04-05T12:16:36.048Z,8.00
2019-04-05T12:18:26.863Z,8.30
2019-04-05T12:19:26.719Z,7.70
2019-04-05T12:21:20.941Z,7.80
2019-04-05T12:22:20.111Z,8.10
2019-04-05T12:24:11.963Z,8.50
2019-04-05T12:25:11.831Z,8.00
2019-04-05T12:27:04.812Z,8.40
2019-04-05T12:28:06.809Z,8.90
2019-04-05T12:29:57.091Z,9.70
2019-04-05T12:30:56.966Z,9.60
2019-04-05T12:32:49.642Z,9.20
2019-04-05T12:33:52.198Z,9.30
2019-04-05T12:35:42.221Z,9.40
2019-04-05T12:36:42.090Z,9.60
2019-04-05T12:38:34.783Z,9.50
2019-04-05T12:39:37.173Z,9.40
2019-04-05T12:41:27.303Z,11.60
2019-04-05T12:42:27.198Z,11.70
2019-04-05T12:44:19.875Z,11.90
2019-04-05T12:45:19.747Z,11.70
2019-04-05T12:47:15.489Z,12.70
2019-04-05T12:48:13.697Z,12.00
2019-04-05T12:50:04.994Z,12.90
2019-04-05T12:51:05.684Z,12.60
2019-04-05T12:52:57.554Z,14.10
2019-04-05T12:53:57.496Z,14.10
2019-04-05T12:55:51.659Z,14.60
2019-04-05T12:56:49.987Z,15.40
2019-04-05T12:58:42.668Z,15.50
2019-04-05T12:59:42.545Z,15.90
2019-04-05T13:01:35.222Z,16.20
2019-04-05T13:02:35.110Z,16.10
2019-04-05T13:04:27.796Z,17.20
2019-04-05T13:05:27.663Z,17.80
2019-04-05T13:07:20.717Z,17.70
2019-04-05T13:08:20.874Z,18.70
2019-04-05T13:10:12.912Z,17.20
2019-04-05T13:11:12.776Z,17.40
2019-04-05T13:13:05.468Z,18.10
2019-04-05T13:14:05.328Z,17.60
2019-04-05T13:15:59.545Z,16.10
2019-04-05T13:17:01.745Z,16.30
2019-04-05T13:18:50.581Z,14.80
2019-04-05T13:19:50.456Z,14.60
2019-04-05T13:21:43.123Z,14.60
2019-04-05T13:22:43.015Z,13.70
2019-04-05T13:24:39.525Z,12.70
2019-04-05T13:25:35.565Z,13.10
2019-04-05T13:27:28.233Z,13.50
2019-04-05T13:28:28.123Z,13.70
2019-04-05T13:30:20.825Z,13.30
2019-04-05T13:31:20.685Z,12.20
2019-04-05T13:33:13.351Z,12.70
2019-04-05T13:34:13.278Z,13.60
2019-04-05T13:36:08.321Z,13.50
2019-04-05T13:37:05.802Z,13.80
2019-04-05T13:39:00.378Z,14.70
2019-04-05T13:40:00.015Z,15.10
2019-04-05T13:41:51.025Z,15.30
2019-04-05T13:42:50.914Z,15.50
2019-04-05T13:44:43.600Z,14.80
2019-04-05T13:45:43.492Z,15.40
2019-04-05T13:47:38.939Z,14.60
2019-04-05T13:48:37.623Z,15.80
2019-04-05T13:50:28.715Z,16.00
2019-04-05T13:51:31.750Z,16.30
2019-04-05T13:53:21.258Z,16.60
2019-04-05T13:54:21.137Z,18.10
2019-04-05T13:56:13.816Z,18.60
2019-04-05T13:57:13.690Z,18.30
2019-04-05T13:59:06.362Z,17.70
2019-04-05T14:00:06.244Z,18.20
2019-04-05T14:02:05.916Z,18.30
2019-04-05T14:02:58.797Z,17.40
2019-04-05T14:04:53.590Z,18.80
2019-04-05T14:05:54.040Z,19.10
2019-04-05T14:07:44.050Z,18.20
2019-04-05T14:08:43.944Z,18.60
2019-04-05T14:10:36.629Z,19.30
2019-04-05T14:11:37.645Z,17.60
2019-04-05T14:13:29.196Z,18.20
2019-04-05T14:14:29.051Z,19.30
2019-04-05T14:16:21.740Z,17.70
2019-04-05T14:17:21.614Z,18.20
2019-04-05T14:19:14.275Z,20.00
2019-04-05T14:20:14.191Z,19.70
2019-04-05T14:22:08.667Z,18.90
2019-04-05T14:23:06.730Z,18.70
2019-04-05T14:24:59.420Z,18.60
2019-04-05T14:25:59.899Z,17.50
2019-04-05T14:27:51.960Z,18.50
2019-04-05T14:28:53.130Z,17.90
2019-04-05T14:30:44.539Z,18.30
2019-04-05T14:31:44.400Z,18.50
2019-04-05T14:33:37.068Z,18.20
2019-04-05T14:34:36.975Z,17.60
2019-04-05T14:36:29.643Z,18.30
2019-04-05T14:37:29.511Z,18.10
2019-04-05T14:39:22.198Z,17.80
2019-04-05T14:40:22.066Z,17.50
2019-04-05T14:42:15.656Z,19.30
2019-04-05T14:43:15.135Z,18.60
2019-04-05T14:45:07.287Z,19.30
2019-04-05T14:46:07.176Z,19.40
2019-04-05T14:47:59.862Z,20.40
2019-04-05T14:49:00.641Z,21.20
2019-04-05T14:50:52.412Z,20.10
2019-04-05T14:51:56.185Z,18.80
2019-04-05T14:53:44.963Z,19.80
2019-04-05T14:54:44.862Z,18.90
2019-04-05T14:56:37.545Z,19.30
2019-04-05T14:57:37.418Z,18.50
2019-04-05T14:59:32.682Z,19.40
2019-04-05T15:00:29.977Z,19.20
2019-04-05T15:02:22.652Z,19.50
2019-04-05T15:03:22.555Z,19.70
2019-04-05T15:05:15.208Z,18.30
2019-04-05T15:06:15.083Z,18.70
2019-04-05T15:08:07.775Z,18.30
2019-04-05T15:09:07.632Z,18.40
2019-04-05T15:11:00.340Z,18.50
2019-04-05T15:12:00.197Z,18.50
2019-04-05T15:13:52.859Z,18.60
2019-04-05T15:14:52.745Z,18.20
2019-04-05T15:16:45.429Z,19.10
2019-04-05T15:17:48.248Z,19.30
2019-04-05T15:19:37.970Z,19.00
2019-04-05T15:20:37.858Z,19.00
2019-04-05T15:22:30.551Z,18.60
2019-04-05T15:23:30.419Z,18.80
2019-04-05T15:25:23.094Z,18.50
2019-04-05T15:26:22.991Z,17.50
2019-04-05T15:28:15.660Z,18.30
2019-04-05T15:29:15.540Z,19.30
2019-04-05T15:31:08.197Z,18.40
2019-04-05T15:32:08.096Z,17.70
2019-04-05T15:34:00.776Z,17.50
2019-04-05T15:35:00.644Z,18.50
2019-04-05T15:36:53.318Z,19.30
2019-04-05T15:37:53.196Z,18.20
2019-04-05T15:39:45.866Z,19.00
2019-04-05T15:40:45.745Z,18.10
2019-04-05T15:42:38.431Z,18.50
2019-04-05T15:43:38.300Z,19.20
2019-04-05T15:45:30.978Z,19.60
2019-04-05T15:46:30.854Z,18.60
2019-04-05T15:48:23.536Z,17.50
2019-04-05T15:49:23.408Z,17.70
2019-04-05T15:51:16.071Z,18.90
2019-04-05T15:52:18.891Z,17.40
2019-04-05T15:54:08.648Z,17.70
2019-04-05T15:55:08.523Z,18.40
2019-04-05T15:57:01.468Z,17.40
2019-04-05T15:58:03.390Z,17.00
2019-04-05T15:59:53.758Z,17.90
2019-04-05T16:00:53.631Z,18.20
2019-04-05T16:02:46.372Z,17.80
2019-04-05T16:03:46.188Z,17.60
2019-04-05T16:05:38.863Z,17.40
2019-04-05T16:06:39.192Z,16.60
2019-04-05T16:08:31.459Z,16.10
2019-04-05T16:09:31.332Z,17.10
2019-04-05T16:11:24.013Z,16.40
2019-04-05T16:12:23.901Z,16.70
2019-04-05T16:14:16.580Z,16.40
2019-04-05T16:15:16.452Z,17.20
2019-04-05T16:17:09.117Z,17.00
2019-04-05T16:18:09.016Z,16.60
2019-04-05T16:20:01.878Z,16.00
2019-04-05T16:21:01.587Z,16.80
2019-04-05T16:22:54.259Z,16.70
2019-04-05T16:23:54.132Z,15.90
2019-04-05T16:25:46.799Z,16.50
2019-04-05T16:26:46.688Z,17.00
2019-04-05T16:28:40.970Z,16.30
2019-04-05T16:29:39.240Z,16.20
2019-04-05T16:31:31.907Z,15.90
2019-04-05T16:32:31.811Z,15.80
2019-04-05T16:34:24.503Z,16.00
2019-04-05T16:35:24.360Z,16.80
2019-04-05T16:37:17.026Z,16.30
2019-04-05T16:38:16.911Z,15.50
2019-04-05T16:40:09.605Z,17.30
2019-04-05T16:41:09.476Z,16.80
2019-04-05T16:43:03.106Z,16.50
2019-04-05T16:44:02.047Z,15.90
2019-04-05T16:45:54.737Z,16.20
2019-04-05T16:46:54.610Z,16.50
2019-04-05T16:48:47.375Z,16.40
2019-04-05T16:49:47.253Z,16.70
2019-04-05T16:51:39.912Z,15.60
2019-04-05T16:52:45.188Z,15.80
2019-04-05T16:54:32.482Z,15.20
2019-04-05T16:55:32.398Z,16.10
2019-04-05T16:57:25.014Z,16.60
2019-04-05T16:58:24.907Z,16.70
2019-04-05T17:00:17.589Z,17.50
2019-04-05T17:01:26.917Z,16.70
2019-04-05T17:03:10.119Z,17.30
2019-04-05T17:04:10.005Z,16.10
2019-04-05T17:06:02.699Z,17.10
2019-04-05T17:07:02.616Z,17.30
2019-04-05T17:08:55.251Z,16.70
2019-04-05T17:09:55.198Z,17.00
2019-04-05T17:11:47.787Z,19.90
2019-04-05T17:12:47.696Z,18.60
2019-04-05T17:14:40.374Z,16.90
2019-04-05T17:15:40.241Z,16.10
2019-04-05T17:17:32.933Z,17.30
2019-04-05T17:18:32.806Z,16.60
2019-04-05T17:20:25.481Z,16.60
2019-04-05T17:21:25.352Z,16.30
2019-04-05T17:23:18.020Z,16.20
2019-04-05T17:24:17.908Z,16.60
2019-04-05T17:26:10.616Z,15.90
2019-04-05T17:27:10.502Z,16.70
2019-04-05T17:29:03.160Z,17.00
2019-04-05T17:30:03.049Z,17.30
2019-04-05T17:31:55.733Z,17.30
2019-04-05T17:32:55.606Z,15.90
2019-04-05T17:34:48.282Z,16.60
2019-04-05T17:35:48.155Z,16.50
2019-04-05T17:37:40.820Z,17.90
2019-04-05T17:38:40.704Z,16.40
2019-04-05T17:40:33.384Z,15.70
2019-04-05T17:41:33.269Z,16.30
2019-04-05T17:43:25.927Z,16.80
2019-04-05T17:44:25.828Z,17.30
2019-04-05T17:46:18.498Z,16.50
2019-04-05T17:47:18.377Z,16.20
2019-04-05T17:49:11.048Z,16.50
2019-04-05T17:50:11.101Z,17.60
2019-04-05T17:52:03.628Z,16.80
2019-04-05T17:53:12.177Z,16.80
2019-04-05T17:54:56.195Z,16.70
2019-04-05T17:55:58.900Z,17.10
2019-04-05T17:57:48.711Z,16.40
2019-04-05T17:58:48.603Z,17.50
2019-04-05T18:00:41.298Z,16.80
2019-04-05T18:01:41.158Z,16.60
2019-04-05T18:03:33.832Z,16.90
2019-04-05T18:04:33.712Z,16.40
2019-04-05T18:06:26.443Z,16.50
2019-04-05T18:07:26.308Z,16.50
2019-04-05T18:09:18.995Z,16.60
2019-04-05T18:10:18.879Z,16.60
2019-04-05T18:12:11.555Z,16.40
2019-04-05T18:13:11.425Z,16.00
2019-04-05T18:15:04.105Z,15.20
2019-04-05T18:16:03.983Z,14.90
2019-04-05T18:17:56.645Z,14.90
2019-04-05T18:18:56.535Z,15.00
2019-04-05T18:20:49.204Z,14.50
2019-04-05T18:21:49.081Z,15.40
2019-04-05T18:23:41.748Z,15.20
2019-04-05T18:24:41.638Z,14.70
2019-04-05T18:26:34.322Z,14.80
2019-04-05T18:27:34.185Z,14.20
2019-04-05T18:29:26.877Z,14.30
2019-04-05T18:30:26.763Z,14.30
2019-04-05T18:32:19.449Z,14.20
2019-04-05T18:33:19.331Z,14.00
2019-04-05T18:35:12.002Z,14.20
2019-04-05T18:36:11.886Z,14.30
2019-04-05T18:38:04.569Z,14.50
2019-04-05T18:39:04.445Z,13.60
2019-04-05T18:40:57.132Z,13.50
2019-04-05T18:41:57.006Z,13.10
2019-04-05T18:43:49.692Z,14.10
2019-04-05T18:44:49.606Z,13.70
2019-04-05T18:46:42.270Z,13.80
2019-04-05T18:47:42.138Z,14.50
2019-04-05T18:49:34.851Z,13.90
2019-04-05T18:50:34.714Z,14.30
2019-04-05T18:52:27.384Z,14.60
2019-04-05T18:53:37.107Z,13.70
2019-04-05T18:55:19.924Z,14.10
2019-04-05T18:56:19.811Z,14.50
2019-04-05T18:58:12.496Z,14.70
2019-04-05T18:59:12.372Z,14.20
2019-04-05T19:01:05.057Z,14.10
2019-04-05T19:02:04.943Z,14.50
2019-04-05T19:03:57.623Z,14.50
2019-04-05T19:04:57.500Z,14.10
2019-04-05T19:06:50.178Z,14.00
2019-04-05T19:07:50.053Z,14.80
2019-04-05T19:09:42.716Z,15.20
2019-04-05T19:10:42.605Z,14.40
2019-04-05T19:12:35.325Z,14.70
2019-04-05T19:13:35.167Z,15.60
2019-04-05T19:15:27.842Z,16.00
2019-04-05T19:16:27.725Z,15.20
2019-04-05T19:18:20.415Z,16.30
2019-04-05T19:19:20.279Z,16.30
2019-04-05T19:21:12.948Z,16.70
2019-04-05T19:22:12.825Z,16.20
2019-04-05T19:24:05.512Z,16.20
2019-04-05T19:25:05.383Z,16.20
2019-04-05T19:26:58.067Z,15.90
2019-04-05T19:27:57.941Z,16.20
2019-04-05T19:29:50.626Z,16.90
2019-04-05T19:49:58.537Z,17.10
2019-04-05T19:50:58.417Z,17.40
2019-04-05T19:52:51.112Z,16.80
2019-04-05T19:54:00.782Z,17.00
2019-04-05T19:55:43.640Z,17.10
2019-04-05T19:56:43.525Z,17.00
2019-04-05T19:58:36.262Z,16.70
2019-04-05T19:59:36.169Z,16.80
2019-04-05T20:01:28.795Z,17.10
2019-04-05T20:02:28.682Z,17.30
2019-04-05T20:04:21.384Z,16.90
2019-04-05T20:05:21.252Z,16.80
2019-04-05T20:07:14.447Z,16.20
2019-04-05T20:08:14.306Z,17.30
2019-04-05T20:10:06.994Z,17.00
2019-04-05T20:11:06.867Z,17.80
2019-04-05T20:12:59.553Z,16.90
2019-04-05T20:13:59.422Z,18.20
2019-04-05T20:15:52.099Z,18.20
2019-04-05T20:16:52.061Z,18.50
2019-04-05T20:18:44.650Z,17.10
2019-04-05T20:19:44.522Z,17.90
2019-04-05T20:21:37.191Z,18.50
2019-04-05T20:22:37.077Z,18.40
2019-04-05T20:24:29.768Z,16.90
2019-04-05T20:25:29.647Z,18.90
2019-04-05T20:27:22.311Z,18.50
2019-04-05T20:28:22.209Z,18.40
2019-04-05T20:30:14.883Z,18.90
2019-04-05T20:31:14.758Z,18.80
2019-04-05T20:33:07.422Z,18.40
2019-04-05T20:34:07.317Z,19.20
2019-04-05T20:35:59.993Z,18.30
2019-04-05T20:36:59.863Z,18.30
2019-04-05T20:38:52.552Z,19.20
2019-04-05T20:39:52.432Z,18.70
2019-04-05T20:41:45.080Z,18.70
2019-04-05T20:42:44.980Z,19.40
2019-04-05T20:44:37.659Z,18.90
2019-04-05T20:45:37.536Z,20.30
2019-04-05T20:47:30.203Z,18.80
2019-04-05T20:48:30.092Z,18.50
2019-04-05T20:50:22.776Z,20.00
2019-04-05T20:51:22.651Z,20.20
2019-04-05T20:53:15.365Z,20.30
2019-04-05T20:54:24.269Z,19.00
2019-04-05T20:56:07.895Z,19.50
2019-04-05T20:57:07.764Z,20.30
2019-04-05T20:59:00.439Z,20.30
2019-04-05T21:00:00.326Z,20.00
2019-04-05T21:01:53.004Z,19.80
2019-04-05T21:02:52.877Z,19.80
2019-04-05T21:04:45.551Z,21.10
2019-04-05T21:05:45.430Z,19.80
2019-04-05T21:07:38.094Z,19.80
2019-04-05T21:08:37.973Z,21.00
2019-04-05T21:10:30.672Z,20.40
2019-04-05T21:11:30.536Z,20.80
2019-04-05T21:13:23.210Z,22.50
2019-04-05T21:14:23.124Z,21.80
2019-04-05T21:16:15.779Z,22.10
2019-04-05T21:17:15.651Z,22.40
2019-04-05T21:19:08.329Z,22.50
2019-04-05T21:20:08.221Z,24.00
2019-04-05T21:22:01.010Z,24.80
2019-04-05T21:23:00.869Z,23.60
2019-04-05T21:24:53.564Z,23.90
2019-04-05T21:25:53.435Z,24.00
2019-04-05T21:27:46.087Z,24.00
2019-04-05T21:28:45.979Z,24.60
2019-04-05T21:30:38.697Z,25.30
2019-04-05T21:31:38.531Z,25.40
2019-04-05T21:33:31.214Z,26.00
2019-04-05T21:34:31.162Z,26.10
2019-04-05T21:36:23.788Z,24.80
2019-04-05T21:37:23.658Z,24.60
2019-04-05T21:39:16.323Z,25.10
2019-04-05T21:40:16.213Z,25.20
2019-04-05T21:42:08.906Z,25.00
2019-04-05T21:43:08.771Z,25.30
2019-04-05T21:45:01.479Z,25.70
2019-04-05T21:46:01.338Z,26.40
2019-04-05T21:47:54.010Z,25.70
2019-04-05T21:48:53.890Z,26.20
2019-04-05T21:50:46.593Z,25.60
2019-04-05T21:51:46.460Z,27.00
2019-04-05T21:53:39.117Z,27.20
2019-04-05T21:54:47.212Z,27.10
2019-04-05T21:56:31.697Z,25.50
2019-04-05T21:57:31.579Z,25.60
2019-04-05T21:59:24.255Z,25.10
